Time;durP1;ratioP1;P1;durP2;ratioP2;P2;SDS_P1;SDS_P2;PMS_P1;PMS_P2;Temp;Humidity;BMP_temperature;BMP_pressure;BME280_temperature;BME280_humidity;BME280_pressure;Samples;Min_cycle;Max_cycle;Signal;HPM_P1;HPM_P2
2022/01/25 00:10:41;;;;;;;9.50;6.10;;;-5.10;65.30;;;-5.72;51.79;96306.38;5041869;28;20866;-57
2022/01/25 00:24:43;;;;;;;11.47;6.80;;;-5.10;65.50;;;-5.77;52.06;96314.09;5037212;28;20506;-57
2022/01/25 00:27:25;;;;;;;13.00;6.87;;;-5.10;65.50;;;-5.82;52.47;96314.09;5039897;28;20497;-57
2022/01/25 00:30:11;;;;;;;11.37;6.53;;;-5.20;65.50;;;-5.83;52.24;96316.69;5037237;28;20475;-58
2022/01/25 00:32:38;;;;;;;11.40;7.33;;;-5.20;65.80;;;-5.83;52.25;96311.56;5036887;28;20448;-57
2022/01/25 00:35:06;;;;;;;10.20;7.03;;;-5.20;66.00;;;-5.83;52.32;96309.84;5039866;28;20981;-56
2022/01/25 00:37:34;;;;;;;14.10;8.60;;;-5.20;66.10;;;-5.84;52.20;96313.28;5040123;28;20460;-58
2022/01/25 00:40:04;;;;;;;13.30;6.90;;;-5.20;66.00;;;-5.85;52.39;96314.13;5039383;28;20448;-56
2022/01/25 00:42:31;;;;;;;9.70;7.17;;;-5.20;66.10;;;-5.86;52.16;96316.69;5039636;28;20456;-57
2022/01/25 00:44:59;;;;;;;10.67;7.20;;;-5.20;66.00;;;-5.87;52.46;96314.97;5033924;28;20445;-57
2022/01/25 00:47:26;;;;;;;14.83;6.90;;;-5.20;66.50;;;-5.88;52.36;96308.16;5037724;28;20960;-57
2022/01/25 00:49:54;;;;;;;9.53;6.30;;;-5.30;66.10;;;-5.87;52.62;96308.16;5037755;28;20484;-57
2022/01/25 00:53:52;;;;;;;9.70;6.27;;;-5.20;66.80;;;-5.85;52.44;96303.03;5041231;28;20475;-57
2022/01/25 00:55:11;;;;;;;13.47;6.60;;;-5.20;66.50;;;-5.87;52.84;96295.34;5037655;28;20983;-57
2022/01/25 00:57:38;;;;;;;11.27;6.50;;;-5.30;66.60;;;-5.87;52.38;96300.47;5040942;28;20453;-57
2022/01/25 01:00:08;;;;;;;12.53;6.77;;;-5.20;66.60;;;-5.88;52.44;96292.81;5038864;28;20480;-57
2022/01/25 01:02:35;;;;;;;8.13;5.90;;;-5.30;66.60;;;-5.88;53.43;96298.75;5040002;28;20471;-57
2022/01/25 01:05:03;;;;;;;13.03;6.70;;;-5.30;67.10;;;-5.86;52.94;96296.19;5037775;28;20449;-58
2022/01/25 01:07:30;;;;;;;9.73;5.97;;;-5.20;67.30;;;-5.85;52.96;96292.78;5036190;28;20964;-57
2022/01/25 01:09:59;;;;;;;8.40;5.77;;;-5.20;67.70;;;-5.85;53.01;96288.50;5039778;28;21028;-57
2022/01/25 01:12:55;;;;;;;9.60;5.80;;;-5.20;67.60;;;-5.82;53.07;96291.06;5038068;28;20453;-57
2022/01/25 01:15:27;;;;;;;9.47;6.47;;;-5.20;67.60;;;-5.79;53.32;96293.59;5035409;28;20471;-58
2022/01/25 01:32:01;;;;;;;20.83;7.10;;;-5.10;67.70;;;-5.82;52.73;96291.06;5032778;28;20496;-58
2022/01/25 01:43:06;;;;;;;7.90;6.17;;;-5.20;67.50;;;-5.90;52.99;96282.56;5040984;28;21278;-57
2022/01/25 01:45:44;;;;;;;9.40;6.20;;;-5.30;67.70;;;-5.91;53.27;96283.41;5037158;28;20543;-57
2022/01/25 01:48:25;;;;;;;9.77;5.93;;;-5.30;67.70;;;-5.91;53.28;96280.00;5039794;28;21019;-58
2022/01/25 01:50:52;;;;;;;10.60;6.93;;;-5.30;67.80;;;-5.92;52.92;96281.69;5037063;28;20549;-57
2022/01/25 01:53:20;;;;;;;8.90;5.93;;;-5.30;67.40;;;-5.93;53.05;96277.44;5038863;28;20885;-57
2022/01/25 01:55:47;;;;;;;10.63;6.40;;;-5.30;67.60;;;-5.96;53.21;96273.16;5035740;28;20479;-57
2022/01/25 01:58:15;;;;;;;10.07;6.20;;;-5.30;67.70;;;-5.98;52.99;96271.50;5034354;28;20472;-57
2022/01/25 02:00:45;;;;;;;11.13;6.93;;;-5.40;67.40;;;-6.00;53.33;96273.22;5043679;28;21057;-56
2022/01/25 02:03:13;;;;;;;10.67;6.87;;;-5.40;67.20;;;-6.05;53.04;96265.56;5045208;28;20524;-57
2022/01/25 02:05:41;;;;;;;14.17;7.23;;;-5.40;67.50;;;-6.05;53.15;96265.56;5042576;28;20498;-57
2022/01/25 02:08:08;;;;;;;11.20;6.90;;;-5.40;67.60;;;-6.07;53.35;96267.28;5041600;28;20931;-57
2022/01/25 02:10:35;;;;;;;11.63;7.07;;;-5.40;67.90;;;-6.09;53.68;96268.97;5040862;28;20720;-57
2022/01/25 02:13:05;;;;;;;13.90;7.00;;;-5.40;68.30;;;-6.11;53.59;96269.84;5043686;28;20444;-56
2022/01/25 02:15:32;;;;;;;14.00;7.27;;;-5.50;68.40;;;-6.16;53.84;96263.03;5042243;28;20464;-57
2022/01/25 02:23:32;;;;;;;15.40;7.83;;;-5.60;68.90;;;-6.25;54.47;96257.94;5044392;28;20428;-58
2022/01/25 02:26:02;;;;;;;9.10;6.90;;;-5.60;69.20;;;-6.28;54.26;96252.81;5038181;28;20991;-57
2022/01/25 02:28:31;;;;;;;12.40;7.97;;;-5.60;69.40;;;-6.30;54.47;96239.19;5037376;28;20452;-57
2022/01/25 02:30:58;;;;;;;10.47;7.33;;;-5.60;69.80;;;-6.32;54.30;96235.75;5037976;28;21033;-57
2022/01/25 02:33:25;;;;;;;15.77;7.17;;;-5.70;69.70;;;-6.32;54.27;96233.19;5040068;28;20459;-57
2022/01/25 02:35:54;;;;;;;11.90;7.80;;;-5.70;69.60;;;-6.33;54.45;96234.06;5040676;28;20481;-58
2022/01/25 02:38:22;;;;;;;10.40;7.20;;;-5.70;69.80;;;-6.35;54.43;96235.78;5039635;28;21038;-57
2022/01/25 02:40:50;;;;;;;12.83;8.10;;;-5.70;70.10;;;-6.36;54.53;96241.75;5043753;28;20471;-57
2022/01/25 02:43:19;;;;;;;10.77;7.40;;;-5.70;70.30;;;-6.36;55.01;96241.75;5035460;28;20448;-57
2022/01/25 02:45:52;;;;;;;13.10;8.00;;;-5.70;70.70;;;-6.37;54.98;96229.81;5038498;28;20523;-56
2022/01/25 02:51:07;;;;;;;16.20;10.00;;;-5.70;70.60;;;-6.38;54.65;96236.66;5035092;28;21045;-58
2022/01/25 02:53:35;;;;;;;13.80;8.13;;;-5.70;70.60;;;-6.40;54.72;96232.38;5038901;28;20471;-58
2022/01/25 02:56:02;;;;;;;12.53;8.57;;;-5.70;70.50;;;-6.41;54.52;96228.97;5038575;28;20551;-57
2022/01/25 02:58:29;;;;;;;16.17;7.90;;;-5.80;70.40;;;-6.42;54.65;96222.16;5040209;28;20850;-57
2022/01/25 03:00:56;;;;;;;15.57;9.70;;;-5.80;70.50;;;-6.41;54.83;96230.66;5041419;28;21008;-57
2022/01/25 03:03:24;;;;;;;14.40;9.13;;;-5.80;70.60;;;-6.41;54.72;96233.22;5042569;28;20808;-57
2022/01/25 03:05:51;;;;;;;15.90;9.53;;;-5.80;70.60;;;-6.43;54.67;96228.09;5040353;28;20476;-57
2022/01/25 03:08:20;;;;;;;18.07;9.70;;;-5.80;70.10;;;-6.46;54.30;96225.56;5036738;28;20452;-56
2022/01/25 03:10:48;;;;;;;13.97;8.50;;;-5.80;69.80;;;-6.49;54.21;96229.00;5033202;28;20610;-56
2022/01/25 03:13:19;;;;;;;18.23;8.60;;;-5.80;69.60;;;-6.52;54.22;96228.13;5036091;28;20456;-58
2022/01/25 03:16:00;;;;;;;13.20;8.43;;;-5.80;69.90;;;-6.56;54.48;96223.91;5043471;28;20530;-56
2022/01/25 03:18:41;;;;;;;16.20;8.33;;;-5.90;69.90;;;-6.59;54.58;96217.06;5040385;28;20505;-57
2022/01/25 03:21:34;;;;;;;15.70;9.53;;;-5.90;70.00;;;-6.61;54.42;96218.78;5039310;28;20500;-57
2022/01/25 03:24:04;;;;;;;17.03;8.97;;;-6.00;69.70;;;-6.66;54.46;96210.28;5040038;28;20445;-56
2022/01/25 03:26:31;;;;;;;18.40;9.20;;;-5.90;69.90;;;-6.68;54.73;96215.41;5036300;28;20572;-58
2022/01/25 03:29:00;;;;;;;20.87;10.97;;;-6.00;70.00;;;-6.73;54.56;96213.69;5038149;28;20464;-57
2022/01/25 03:31:27;;;;;;;15.27;9.23;;;-6.00;70.00;;;-6.75;54.01;96217.97;5038083;28;20496;-57
2022/01/25 03:33:58;;;;;;;15.90;9.20;;;-6.10;69.70;;;-6.80;55.10;96217.13;5039885;28;20448;-58
2022/01/25 03:36:26;;;;;;;12.90;8.20;;;-6.10;70.10;;;-6.87;54.60;96219.69;5036410;28;20538;-58
2022/01/25 03:38:53;;;;;;;17.90;9.67;;;-6.20;69.80;;;-6.93;54.36;96222.25;5038765;28;20498;-58
2022/01/25 03:41:23;;;;;;;15.23;9.40;;;-6.20;70.20;;;-6.98;54.62;96212.88;5039144;28;20494;-57
2022/01/25 03:43:54;;;;;;;13.73;8.60;;;-6.30;69.70;;;-6.99;54.26;96212.00;5037662;28;20503;-57
2022/01/25 03:46:29;;;;;;;15.67;8.50;;;-6.30;70.00;;;-7.00;54.96;96210.34;5039535;28;20500;-57
2022/01/25 03:51:40;;;;;;;12.53;8.10;;;-6.30;70.80;;;-7.04;54.55;96211.19;5039312;28;21050;-57
2022/01/25 03:54:08;;;;;;;10.57;8.50;;;-6.30;70.50;;;-7.08;55.10;96205.22;5038586;28;20453;-57
2022/01/25 03:56:37;;;;;;;19.10;9.40;;;-6.40;71.70;;;-7.10;55.32;96209.47;5035638;28;20495;-59
2022/01/25 03:59:04;;;;;;;15.33;8.40;;;-6.40;71.20;;;-7.13;55.03;96206.06;5036477;28;20449;-58
2022/01/25 04:01:32;;;;;;;14.77;8.63;;;-6.40;71.30;;;-7.17;54.77;96202.66;5036029;28;20475;-57
2022/01/25 04:04:02;;;;;;;15.93;8.13;;;-6.40;71.00;;;-7.21;55.49;96209.47;5047380;28;20444;-57
2022/01/25 04:06:32;;;;;;;17.43;8.80;;;-6.50;71.20;;;-7.21;55.46;96212.03;5037838;28;20866;-57
2022/01/25 04:08:59;;;;;;;16.17;8.27;;;-6.50;71.80;;;-7.23;55.63;96207.78;5039875;28;20464;-57
2022/01/25 04:11:27;;;;;;;17.30;8.70;;;-6.50;71.80;;;-7.25;54.96;96207.78;5038466;28;20504;-58
2022/01/25 04:13:57;;;;;;;13.90;8.00;;;-6.50;71.30;;;-7.27;54.62;96199.25;5038773;28;20507;-57
2022/01/25 04:16:28;;;;;;;15.23;8.97;;;-6.50;70.80;;;-7.28;54.51;96199.25;5036908;28;20469;-58
2022/01/25 04:19:09;;;;;;;21.10;8.60;;;-6.50;70.90;;;-7.29;54.85;96197.56;5039758;28;21050;-57
2022/01/25 04:27:08;;;;;;;12.60;7.17;;;-6.60;71.30;;;-7.31;54.95;96204.34;5042452;28;20590;-57
2022/01/25 04:29:37;;;;;;;16.83;8.83;;;-6.60;71.10;;;-7.32;54.99;96202.66;5038704;28;20448;-57
2022/01/25 04:32:07;;;;;;;18.63;10.13;;;-6.60;71.00;;;-7.34;55.33;96215.44;5033912;28;20483;-58
2022/01/25 04:34:42;;;;;;;16.50;10.00;;;-6.60;71.20;;;-7.38;55.55;96208.63;5040208;28;20448;-57
2022/01/25 04:51:17;;;;;;;23.73;12.07;;;-6.70;82.90;;;-7.30;61.13;96217.13;5036838;28;20576;-56
2022/01/25 04:53:52;;;;;;;20.33;11.50;;;-6.60;83.60;;;-7.24;58.18;96217.13;5041228;28;20802;-57
2022/01/25 04:56:26;;;;;;;21.70;11.40;;;-6.60;78.90;;;-7.23;58.44;96205.22;5040791;28;20472;-57
2022/01/25 04:59:01;;;;;;;22.27;10.30;;;-6.50;79.00;;;-7.24;57.90;96206.91;5038639;28;20468;-58
2022/01/25 05:01:29;;;;;;;22.80;11.33;;;-6.50;77.70;;;-7.23;57.17;96197.56;5037477;28;20463;-57
2022/01/25 05:04:03;;;;;;;21.60;11.60;;;-6.50;77.50;;;-7.22;60.43;96197.56;5039742;28;20793;-57
2022/01/25 05:06:31;;;;;;;26.20;12.93;;;-6.60;80.90;;;-7.23;57.50;96200.97;5043302;28;20476;-57
2022/01/25 05:09:07;;;;;;;39.43;12.60;;;-6.50;77.90;;;-7.28;57.72;96196.69;5037655;28;20483;-56
2022/01/25 05:11:38;;;;;;;25.00;11.87;;;-6.60;77.80;;;-7.30;56.60;96199.25;5034140;28;21039;-55
2022/01/25 05:14:22;;;;;;;26.30;13.00;;;-6.60;76.80;;;-7.28;57.69;96194.13;5037237;28;20469;-56
2022/01/25 05:16:54;;;;;;;25.30;11.57;;;-6.60;77.70;;;-7.28;56.84;96195.00;5037919;28;20467;-58
2022/01/25 05:22:18;;;;;;;23.10;12.50;;;-6.60;78.20;;;-7.31;58.84;96192.44;5003339;28;20465;-57
2022/01/25 05:24:45;;;;;;;24.97;12.27;;;-6.60;78.80;;;-7.26;58.04;96185.63;5039224;28;20483;-57
2022/01/25 05:27:14;;;;;;;29.03;11.47;;;-6.60;78.90;;;-7.22;57.19;96182.22;5034798;28;20473;-56
2022/01/25 05:29:41;;;;;;;23.90;11.80;;;-6.60;77.70;;;-7.21;58.29;96181.34;5039916;28;20453;-57
2022/01/25 05:32:10;;;;;;;22.57;12.00;;;-6.50;78.80;;;-7.18;57.51;96170.28;5037308;28;20491;-58
2022/01/25 05:34:37;;;;;;;23.57;11.20;;;-6.50;77.50;;;-7.14;56.91;96172.00;5037870;28;20449;-58
2022/01/25 05:37:06;;;;;;;26.03;11.93;;;-6.50;77.50;;;-7.07;57.10;96167.72;5035009;28;20563;-57
2022/01/25 05:39:35;;;;;;;27.83;12.33;;;-6.40;76.80;;;-7.04;57.34;96168.56;5040923;28;20458;-57
2022/01/25 05:42:42;;;;;;;29.33;11.93;;;-6.40;77.10;;;-7.04;56.99;96157.47;5041520;28;20560;-57
2022/01/25 05:47:56;;;;;;;20.10;12.23;;;-6.40;75.70;;;-7.11;56.69;96160.88;5040860;28;20458;-57
2022/01/25 05:50:23;;;;;;;33.40;12.13;;;-6.40;75.60;;;-7.10;56.60;96170.28;5041386;28;20484;-58
2022/01/25 05:52:50;;;;;;;22.80;12.10;;;-6.40;75.40;;;-7.09;56.70;96165.16;5034572;28;20492;-57
2022/01/25 05:55:17;;;;;;;25.93;12.60;;;-6.40;75.40;;;-7.05;56.39;96166.00;5046007;28;20460;-58
2022/01/25 05:57:45;;;;;;;24.43;13.07;;;-6.40;75.50;;;-7.00;56.82;96178.78;5035374;28;20448;-57
2022/01/25 06:00:13;;;;;;;19.90;11.90;;;-6.30;75.90;;;-6.95;56.50;96174.53;5039024;28;20848;-57
2022/01/25 06:02:40;;;;;;;22.80;12.63;;;-6.30;75.90;;;-6.89;57.18;96174.53;5038532;28;20861;-57
2022/01/25 06:05:09;;;;;;;22.43;10.37;;;-6.20;76.30;;;-6.82;56.12;96177.91;5041251;28;20464;-58
2022/01/25 06:07:37;;;;;;;20.97;11.10;;;-6.20;75.30;;;-6.77;56.56;96179.59;5037588;28;20452;-57
2022/01/25 06:10:06;;;;;;;21.00;10.83;;;-6.10;75.50;;;-6.75;56.72;96185.56;5038386;28;20451;-57
2022/01/25 06:12:33;;;;;;;28.17;12.17;;;-6.10;75.40;;;-6.73;56.09;96181.28;5041194;28;20496;-57
2022/01/25 06:15:01;;;;;;;22.17;11.33;;;-6.10;75.00;;;-6.71;55.79;96181.28;5040017;28;20968;-57
2022/01/25 06:17:28;;;;;;;23.13;11.53;;;-6.10;74.50;;;-6.69;56.12;96169.34;5040345;28;20453;-58
2022/01/25 06:19:55;;;;;;;22.87;12.00;;;-6.00;74.90;;;-6.64;55.67;96174.47;5042505;28;20542;-57
2022/01/25 06:22:24;;;;;;;18.60;10.33;;;-6.00;74.50;;;-6.63;55.80;96179.56;5040329;28;20479;-58
2022/01/25 06:24:52;;;;;;;24.60;12.70;;;-6.00;74.50;;;-6.62;55.54;96183.81;5040838;28;20518;-57
2022/01/25 06:27:19;;;;;;;24.50;12.83;;;-6.00;74.10;;;-6.56;55.60;96175.28;5045081;28;21043;-58
2022/01/25 06:29:47;;;;;;;28.00;13.20;;;-5.90;74.00;;;-6.50;55.33;96173.53;5041593;28;20456;-57
2022/01/25 06:32:15;;;;;;;27.57;12.80;;;-5.90;73.60;;;-6.25;55.40;96176.00;5042059;28;20495;-57
2022/01/25 06:34:44;;;;;;;23.30;12.63;;;-5.70;73.80;;;-5.97;54.74;96171.59;5041877;28;20535;-57
2022/01/25 06:37:12;;;;;;;23.33;12.37;;;-5.50;73.30;;;-5.68;54.44;96167.16;5042395;28;20503;-57
2022/01/25 06:39:41;;;;;;;22.17;11.80;;;-5.20;72.70;;;-5.43;54.06;96168.66;5041340;28;20483;-58
2022/01/25 06:42:09;;;;;;;22.60;11.83;;;-5.00;72.00;;;-5.17;53.47;96162.47;5038956;28;20568;-57
2022/01/25 06:44:37;;;;;;;30.23;13.30;;;-4.70;71.30;;;-4.93;52.23;96161.38;5042540;28;20552;-57
2022/01/25 06:47:05;;;;;;;29.83;13.00;;;-4.50;70.30;;;-4.73;52.54;96171.47;5044918;28;21000;-58
2022/01/25 06:49:33;;;;;;;25.00;12.90;;;-4.30;70.10;;;-4.27;53.20;96154.72;5034712;28;20473;-60
2022/01/25 06:52:00;;;;;;;24.00;12.47;;;-3.80;70.20;;;-3.68;51.90;96154.78;5039687;28;20507;-59
2022/01/25 06:54:27;;;;;;;22.33;12.50;;;-3.30;69.20;;;-3.13;50.37;96142.78;5040383;28;20445;-58
2022/01/25 06:56:56;;;;;;;24.27;12.07;;;-2.70;68.10;;;-2.71;49.18;96142.06;5042001;28;20476;-58
2022/01/25 06:59:23;;;;;;;25.20;13.20;;;-2.20;65.40;;;-2.17;48.93;96141.00;5039900;28;21022;-57
2022/01/25 07:01:51;;;;;;;22.30;11.60;;;-1.70;63.70;;;-1.61;48.62;96135.53;5038413;28;20507;-57
2022/01/25 07:04:18;;;;;;;24.47;12.33;;;-1.20;62.50;;;-1.34;46.48;96146.09;5036872;28;20449;-58
2022/01/25 07:06:45;;;;;;;18.57;10.87;;;-0.90;59.90;;;-1.02;46.17;96153.06;5036501;28;20586;-59
2022/01/25 07:09:13;;;;;;;22.60;12.23;;;-0.60;59.10;;;-0.59;46.04;96153.66;5039863;28;20501;-58
2022/01/25 07:11:40;;;;;;;29.77;13.70;;;-0.20;58.80;;;-0.31;46.42;96148.63;5034236;28;20566;-58
2022/01/25 07:14:09;;;;;;;20.60;12.20;;;0.10;59.20;;;0.02;45.73;96135.63;5044670;28;20444;-58
2022/01/25 07:16:36;;;;;;;28.10;14.67;;;0.50;58.00;;;0.58;44.83;96139.16;5038670;28;20876;-58
2022/01/25 07:19:03;;;;;;;31.47;16.70;;;1.00;57.60;;;1.18;43.08;96138.06;5041524;28;20884;-57
2022/01/25 07:21:31;;;;;;;36.13;16.70;;;1.60;54.90;;;1.81;43.10;96128.97;5039308;28;21005;-57
2022/01/25 07:23:58;;;;;;;34.00;16.23;;;2.30;54.90;;;2.37;42.48;96130.38;5041968;28;20461;-57
2022/01/25 07:26:25;;;;;;;26.87;13.77;;;2.90;54.00;;;2.92;40.29;96130.78;5035413;28;20468;-57
2022/01/25 07:28:53;;;;;;;24.70;12.37;;;3.50;50.80;;;3.38;41.51;96138.47;5036835;28;20467;-58
2022/01/25 07:31:21;;;;;;;25.13;13.40;;;3.90;51.50;;;3.90;41.57;96131.00;5040307;28;20496;-58
2022/01/25 07:33:49;;;;;;;25.73;15.83;;;4.30;51.80;;;4.40;40.14;96120.94;5034270;28;20549;-58
2022/01/25 07:36:16;;;;;;;28.60;15.37;;;4.80;50.20;;;4.81;38.75;96120.78;5037998;28;20472;-59
2022/01/25 07:38:43;;;;;;;26.33;14.07;;;5.20;48.80;;;5.10;38.68;96116.75;5039706;28;20451;-58
2022/01/25 07:41:11;;;;;;;21.70;13.83;;;5.50;48.50;;;5.41;38.98;96124.81;5037538;28;21037;-58
2022/01/25 07:43:38;;;;;;;20.93;13.50;;;5.70;48.10;;;5.72;38.92;96124.09;5040268;28;20904;-58
2022/01/25 07:46:05;;;;;;;22.73;13.00;;;6.00;48.70;;;6.02;37.92;96119.06;5038157;28;21019;-68
2022/01/25 07:48:34;;;;;;;24.63;14.17;;;6.30;47.20;;;6.30;37.63;96121.97;5039585;28;20460;-58
2022/01/25 07:51:01;;;;;;;19.83;11.70;;;6.50;47.80;;;6.57;37.49;96117.03;5039362;28;20819;-60
2022/01/25 07:53:29;;;;;;;21.57;12.63;;;6.80;46.60;;;6.81;34.56;96117.44;5041159;28;20492;-57
2022/01/25 07:55:56;;;;;;;19.23;13.03;;;7.10;44.30;;;7.05;36.46;96124.81;5041028;28;20475;-57
2022/01/25 07:58:23;;;;;;;21.53;13.27;;;7.30;45.20;;;7.28;34.06;96120.88;5040476;28;20459;-58
2022/01/25 08:00:50;;;;;;;19.03;12.70;;;7.50;42.60;;;7.42;31.10;96123.56;5038584;28;20476;-58
2022/01/25 08:03:18;;;;;;;22.70;14.33;;;7.70;40.00;;;7.35;32.93;96122.22;5039214;28;20860;-59
2022/01/25 08:05:48;;;;;;;24.10;13.30;;;7.60;40.00;;;7.25;32.26;96121.06;5039084;28;20504;-57
2022/01/25 08:08:15;;;;;;;18.63;11.97;;;7.50;39.30;;;7.11;33.37;96129.69;5036735;28;20821;-59
2022/01/25 08:10:43;;;;;;;22.30;12.87;;;7.30;40.10;;;7.09;33.38;96121.94;5039426;28;20473;-58
2022/01/25 08:13:10;;;;;;;28.17;12.80;;;7.30;40.50;;;7.20;33.97;96125.72;5036686;28;20484;-58
2022/01/25 08:15:37;;;;;;;28.87;13.20;;;7.30;41.30;;;7.31;33.18;96120.72;5043860;28;20472;-59
2022/01/25 08:18:05;;;;;;;21.73;12.83;;;7.40;40.60;;;7.49;33.91;96121.41;5036781;28;20453;-58
2022/01/25 08:20:32;;;;;;;24.83;14.50;;;7.50;41.20;;;7.67;33.71;96116.88;5037066;28;21071;-58
2022/01/25 08:23:01;;;;;;;18.60;12.13;;;7.70;40.80;;;7.88;32.74;96118.22;5037656;28;20448;-60
2022/01/25 08:25:29;;;;;;;22.10;14.37;;;7.90;40.40;;;8.10;30.82;96118.69;5038438;28;21006;-59
2022/01/25 08:27:56;;;;;;;19.50;13.40;;;8.10;38.60;;;8.19;32.81;96108.47;5035731;28;20443;-59
2022/01/25 08:30:23;;;;;;;18.33;12.20;;;8.30;40.50;;;8.34;31.92;96118.97;5041264;28;20478;-58
2022/01/25 08:32:51;;;;;;;17.90;11.50;;;8.40;39.20;;;8.52;31.65;96109.13;5037160;28;20520;-59
2022/01/25 08:35:19;;;;;;;19.87;13.13;;;8.60;38.80;;;8.75;32.52;96105.91;5037321;28;20452;-58
2022/01/25 08:37:46;;;;;;;23.47;12.83;;;8.80;40.00;;;8.99;32.15;96113.13;5043504;28;20448;-59
2022/01/25 08:40:15;;;;;;;19.33;13.17;;;9.00;39.40;;;9.18;31.67;96115.38;5037301;28;20525;-58
2022/01/25 08:42:42;;;;;;;20.00;13.00;;;9.20;38.90;;;9.31;31.20;96108.41;5036428;28;20448;-59
2022/01/25 08:45:10;;;;;;;23.23;15.10;;;9.40;37.80;;;9.45;31.28;96106.63;5044275;28;20805;-59
2022/01/25 08:47:38;;;;;;;20.40;14.33;;;9.50;38.50;;;9.61;30.26;96094.16;5034304;28;20440;-58
2022/01/25 08:50:08;;;;;;;25.10;13.90;;;9.60;37.50;;;9.78;30.02;96098.25;5038298;28;20460;-58
2022/01/25 08:52:36;;;;;;;19.13;13.50;;;9.80;37.50;;;9.89;29.74;96089.66;5038004;28;20484;-59
2022/01/25 08:55:03;;;;;;;18.53;13.10;;;9.90;36.60;;;9.73;29.98;96084.63;5039943;28;20452;-59
2022/01/25 08:57:32;;;;;;;21.60;13.90;;;9.80;36.10;;;9.74;30.52;96090.69;5038065;28;20451;-58
2022/01/25 08:59:59;;;;;;;31.47;12.33;;;9.70;37.20;;;9.81;30.18;96084.09;5038514;28;20973;-58
2022/01/25 09:02:27;;;;;;;20.90;14.10;;;9.80;36.70;;;9.91;29.66;96090.38;5040318;28;20522;-58
2022/01/25 09:04:54;;;;;;;22.23;13.83;;;9.90;36.20;;;10.06;29.44;96096.38;5036251;28;20440;-59
2022/01/25 09:07:21;;;;;;;19.57;13.47;;;10.00;35.40;;;10.16;29.46;96088.69;5033765;28;20815;-59
2022/01/25 09:09:48;;;;;;;17.60;12.60;;;10.10;35.00;;;10.13;29.26;96084.50;5038916;28;20466;-60
2022/01/25 09:12:16;;;;;;;25.40;14.30;;;10.10;35.00;;;10.08;29.21;96080.50;5033279;28;20483;-59
2022/01/25 09:14:45;;;;;;;28.10;12.47;;;10.20;34.10;;;10.12;28.98;96077.53;5036082;28;20810;-58
2022/01/25 09:17:12;;;;;;;21.83;14.03;;;10.20;34.40;;;10.22;29.39;96073.34;5036844;28;20467;-59
2022/01/25 09:19:41;;;;;;;20.63;13.20;;;10.30;35.00;;;10.39;28.06;96072.19;5040337;28;20554;-58
2022/01/25 09:22:08;;;;;;;24.03;13.70;;;10.40;33.80;;;10.61;29.04;96070.63;5036701;28;21016;-59
2022/01/25 09:24:37;;;;;;;18.27;11.63;;;10.60;34.50;;;10.77;28.45;96073.00;5034444;28;20456;-59
2022/01/25 09:27:07;;;;;;;17.83;12.93;;;10.80;33.50;;;10.82;27.01;96070.03;5036579;28;20463;-58
2022/01/25 09:29:34;;;;;;;18.00;13.07;;;10.80;32.00;;;10.88;27.23;96066.97;5036218;28;20444;-59
2022/01/25 09:32:04;;;;;;;26.07;13.80;;;10.80;32.30;;;10.77;27.27;96067.72;5033248;28;21043;-59
2022/01/25 09:34:31;;;;;;;18.93;12.87;;;10.70;31.20;;;10.62;26.67;96069.69;5037020;28;20527;-58
2022/01/25 09:36:59;;;;;;;19.70;13.37;;;10.60;30.20;;;10.54;27.69;96064.13;5033753;28;20481;-61
2022/01/25 09:39:26;;;;;;;19.83;13.30;;;10.50;32.20;;;10.56;27.88;96068.31;5042582;28;20449;-59
2022/01/25 09:41:53;;;;;;;22.10;13.90;;;10.50;32.90;;;10.70;25.10;96051.53;5038825;28;20467;-59
2022/01/25 09:44:20;;;;;;;20.57;13.60;;;10.60;30.60;;;10.73;26.66;96050.47;5037988;28;20525;-59
2022/01/25 09:46:48;;;;;;;23.17;13.60;;;10.70;31.70;;;10.72;27.00;96049.66;5038867;28;20471;-59
2022/01/25 09:49:17;;;;;;;18.97;13.20;;;10.60;30.40;;;10.61;25.92;96046.94;5038986;28;20453;-59
2022/01/25 09:51:44;;;;;;;29.70;14.90;;;10.60;29.90;;;10.59;27.24;96038.31;5034401;28;20492;-59
2022/01/25 09:54:11;;;;;;;23.17;13.80;;;10.60;31.80;;;10.72;25.67;96043.53;5042025;28;21066;-59
2022/01/25 09:56:38;;;;;;;20.93;13.53;;;10.60;31.40;;;10.69;27.04;96039.34;5040859;28;20483;-58
2022/01/25 09:59:06;;;;;;;24.57;15.00;;;10.60;31.10;;;10.59;26.67;96039.16;5036911;28;20475;-58
2022/01/25 10:01:36;;;;;;;22.07;14.80;;;10.60;31.30;;;10.48;27.09;96038.25;5032605;28;20485;-59
2022/01/25 10:04:06;;;;;;;21.30;14.60;;;10.50;31.50;;;10.54;27.49;96029.94;5037052;28;20439;-60
2022/01/25 10:06:34;;;;;;;25.83;14.63;;;10.40;32.50;;;10.71;27.64;96026.91;5036284;28;20504;-59
2022/01/25 10:09:02;;;;;;;23.97;13.50;;;10.50;32.60;;;10.86;27.54;96024.09;5036028;28;20467;-59
2022/01/25 10:11:29;;;;;;;23.03;15.03;;;10.70;32.50;;;11.01;26.42;96016.88;5038731;28;20469;-59
2022/01/25 10:13:58;;;;;;;22.57;14.17;;;10.80;30.30;;;11.06;26.96;96015.59;5033436;28;20952;-59
2022/01/25 10:16:31;;;;;;;21.70;13.03;;;10.90;31.80;;;11.17;27.13;96012.16;5038082;28;20465;-58
2022/01/25 10:19:00;;;;;;;23.13;13.60;;;11.10;31.80;;;11.32;26.76;96012.75;5033959;28;20444;-58
2022/01/25 10:21:28;;;;;;;19.60;13.70;;;11.20;31.40;;;11.39;25.68;96000.81;5034988;28;20479;-59
2022/01/25 10:24:07;;;;;;;23.60;14.23;;;11.30;30.80;;;11.46;25.40;95995.91;5043483;28;20460;-59
2022/01/25 10:26:36;;;;;;;18.47;12.13;;;11.40;30.00;;;11.52;26.56;95995.44;5039356;28;20487;-59
2022/01/25 10:29:04;;;;;;;19.50;14.00;;;11.50;30.90;;;11.56;26.10;96002.16;5042821;28;20476;-58
2022/01/25 10:31:37;;;;;;;19.00;12.73;;;11.50;30.20;;;11.65;23.96;95995.34;5041609;28;20470;-59
2022/01/25 10:34:05;;;;;;;21.93;14.60;;;11.60;29.30;;;11.62;25.57;95991.16;5038704;28;21012;-58
2022/01/25 10:36:33;;;;;;;19.67;13.23;;;11.60;29.60;;;11.65;26.40;95992.72;5042032;28;20476;-58
2022/01/25 10:39:00;;;;;;;19.20;12.60;;;11.60;31.00;;;11.80;25.91;95985.41;5044888;28;20839;-59
2022/01/25 10:41:31;;;;;;;15.57;11.43;;;11.70;29.90;;;11.89;26.32;95981.22;5041589;28;20480;-59
2022/01/25 10:43:59;;;;;;;22.73;13.90;;;11.80;30.10;;;12.06;26.22;95979.94;5041118;28;20476;-59
2022/01/25 10:46:27;;;;;;;18.80;12.33;;;12.00;30.80;;;12.24;25.53;95974.97;5038384;28;20477;-57
2022/01/25 10:48:58;;;;;;;18.27;12.07;;;12.20;30.30;;;12.29;25.25;95972.81;5037622;28;20446;-58
2022/01/25 10:51:27;;;;;;;18.93;13.70;;;12.30;29.60;;;11.98;24.87;95967.34;5038230;28;20540;-59
2022/01/25 10:54:09;;;;;;;23.43;14.47;;;12.20;28.90;;;11.89;24.80;95965.41;5041227;28;20569;-59
2022/01/25 10:56:44;;;;;;;23.60;15.40;;;12.00;29.50;;;11.79;25.20;95955.59;5038240;28;20475;-59
2022/01/25 10:59:15;;;;;;;22.90;13.77;;;11.90;29.50;;;11.80;25.19;95962.53;5041639;28;20451;-59
2022/01/25 11:01:51;;;;;;;21.37;14.40;;;11.80;29.60;;;11.81;25.07;95963.38;5039281;28;21304;-59
2022/01/25 11:04:20;;;;;;;17.67;11.57;;;11.80;29.20;;;11.75;25.00;95956.78;5039665;28;20534;-59
2022/01/25 11:06:54;;;;;;;16.10;11.10;;;11.80;29.10;;;11.63;24.98;95955.09;5039936;28;20550;-59
2022/01/25 11:09:24;;;;;;;17.73;12.10;;;11.70;28.70;;;11.46;25.59;95949.34;5041914;28;20454;-58
2022/01/25 11:11:55;;;;;;;18.43;12.37;;;11.60;29.80;;;11.41;25.52;95946.22;5045562;28;20472;-59
2022/01/25 11:17:08;;;;;;;23.43;13.43;;;11.40;29.40;;;11.26;25.78;95937.72;5038378;28;20475;-58
2022/01/25 11:19:35;;;;;;;20.13;13.40;;;11.40;29.80;;;11.23;25.65;95937.94;5041132;28;20463;-58
2022/01/25 11:22:02;;;;;;;21.67;13.33;;;11.40;29.80;;;11.22;26.00;95935.44;5040240;28;20575;-57
2022/01/25 11:24:31;;;;;;;33.37;13.00;;;11.40;30.00;;;11.09;26.08;95941.63;5040181;28;20449;-59
2022/01/25 11:27:02;;;;;;;26.37;15.40;;;11.30;30.00;;;10.91;25.10;95933.31;5038914;28;21062;-58
2022/01/25 11:29:31;;;;;;;28.37;17.20;;;11.20;29.30;;;10.59;25.37;95925.19;5037641;28;20476;-59
2022/01/25 11:32:03;;;;;;;27.23;16.37;;;11.00;29.40;;;10.18;26.60;95926.44;5040663;28;20543;-57
2022/01/25 11:34:31;;;;;;;24.53;16.90;;;10.60;30.20;;;9.87;27.06;95920.75;5037840;28;20534;-60
2022/01/25 11:37:04;;;;;;;31.77;16.67;;;10.30;30.70;;;9.52;26.49;95919.66;5040173;28;20464;-59
2022/01/25 11:39:32;;;;;;;26.70;16.13;;;10.00;29.80;;;9.21;27.46;95913.06;5041023;28;20511;-59
2022/01/25 11:42:06;;;;;;;28.33;17.33;;;9.70;32.20;;;8.96;26.91;95903.41;5039436;28;20486;-59